Terminal Aerodrome Forecast
Issued by NWS

Home | Current Version | Previous Version | Graphics & Text | Print | Product List | Glossary On
Versions: 1 2 3 4 5 6 7 8 9 10 11 12 13 14 15 16
000
FTUS43 KMPX 281120
TAFRWF
TAF
KRWF 281120Z 2812/2912 05004KT 6SM -SHRA BR SCT007 OVC015
      TEMPO 2812/2814 4SM -TSRA SCT007 BKN015CB
     FM281700 06005KT 4SM -SHRA BR BKN025 OVC050
      TEMPO 2817/2821 4SM -TSRA BKN025CB
     FM282300 35006KT P6SM VCTS BKN025CB OVC035
     FM290200 31006KT P6SM OVC025=

USA.gov is the U.S. government's official web portal to all federal, state and local government web resources and services.